DNEN

Akanu Ibiam International Airport

Enegu, Nigeria
TAF DNEN 210330Z 2106/2212 VRB02KT 8000 SCT009 BECMG 2109/2111 21012KT BKN013 PROB30 TEMPO 2115/2121 TS BKN010 FEW020CB
Issued Valid From Valid To
Apr-21 @ 03:30 UTC
(6 hours ago)
Apr-21 @ 06:00 UTC
(4 hours ago)
Apr-22 @ 12:00 UTC
(-1 days ago)
Expired Click to View Apr-21 @ 06:00 to Apr-21 @ 09:00
TAF DNEN 210330Z 2106/2212 VRB02KT 8000 SCT009
Wind Visibility Clouds
Variable at 2 knots 7,998 meters
  • Scattered at 900' AGL
Becoming Apr-21 @ 09:00 to Apr-22 @ 12:00
BECMG 2109/2111 21012KT BKN013
Wind Visibility Clouds
210° at 12 knots 7,998 meters
  • Broken at 1,300' AGL
Temporary  (Probability 30%) Apr-21 @ 15:00 to Apr-21 @ 21:00
PROB30 TEMPO 2115/2121 TS BKN010 FEW020CB
Clouds Conditions
  • Broken at 1,000' AGL
  • Few at 2,000' AGL
  • Thunderstorm
TAF DNEN 210330Z 2106/2212 VRB02KT 8000 SCT009 BECMG 2109/2111 21012KT BKN013 PROB30 TEMPO 2115/2121 TS BKN010 FEW020CB
Issued Apr-21 @ 03:30 UTC
(6 hours ago)
Valid From Apr-21 @ 06:00 UTC
(4 hours ago)
Valid To Apr-22 @ 12:00 UTC
(-1 days ago)
Apr-21 @ 06:00 - Apr-21 @ 09:00
Wind Visibility
Variable at 2 knots 7,998 meters
Clouds
  • Scattered at 900' AGL
Becoming Apr-21 @ 09:00 - Apr-22 @ 12:00
Wind Visibility
210° at 12 knots 7,998 meters
Clouds
  • Broken at 1,300' AGL
Probability 30% Temporary Apr-21 @ 15:00 - Apr-21 @ 21:00
Clouds
  • Broken at 1,000' AGL
  • Few at 2,000' AGL
Conditions
  • Thunderstorm